Time;durP1;ratioP1;P1;durP2;ratioP2;P2;SDS_P1;SDS_P2;PMS_P1;PMS_P2;Temp;Humidity;BMP_temperature;BMP_pressure;BME280_temperature;BME280_humidity;BME280_pressure;Samples;Min_cycle;Max_cycle;Signal;HPM_P1;HPM_P2
2022/12/03 00:01:20;;;;;;;20.00;13.25;;;;;;;2.23;96.81;102249.34;4975825;28;20039;-47
2022/12/03 00:03:47;;;;;;;20.88;14.68;;;;;;;2.28;96.65;102244.28;4977979;28;20043;-48
2022/12/03 00:06:16;;;;;;;21.50;15.90;;;;;;;2.22;95.98;102237.78;4976020;28;20039;-48
2022/12/03 00:08:44;;;;;;;20.45;14.55;;;;;;;2.26;96.69;102243.63;4976202;28;20038;-49
2022/12/03 00:11:11;;;;;;;20.40;14.70;;;;;;;2.33;96.10;102239.19;4975590;28;20054;-47
2022/12/03 00:13:39;;;;;;;23.58;17.48;;;;;;;2.29;95.29;102238.72;4958444;28;20090;-50
2022/12/03 00:16:06;;;;;;;20.65;14.88;;;;;;;2.28;95.75;102241.59;4975482;28;20050;-49
2022/12/03 00:18:34;;;;;;;22.40;16.15;;;;;;;2.25;95.97;102239.25;4988948;28;20046;-49
2022/12/03 00:21:02;;;;;;;21.45;16.08;;;;;;;2.29;95.84;102235.22;4978198;28;20058;-48
2022/12/03 00:23:30;;;;;;;23.13;16.88;;;;;;;2.28;96.01;102233.53;4975296;28;20051;-50
2022/12/03 00:25:57;;;;;;;20.67;14.55;;;;;;;2.25;96.31;102233.88;4957381;28;20047;-50
2022/12/03 00:28:25;;;;;;;24.40;17.42;;;;;;;2.20;96.39;102234.41;4982370;28;20567;-50
2022/12/03 00:30:53;;;;;;;20.65;14.02;;;;;;;2.21;96.65;102224.50;4994851;28;20409;-47
2022/12/03 00:33:21;;;;;;;20.63;14.88;;;;;;;2.25;96.42;102228.50;4975364;28;20035;-49
2022/12/03 00:35:49;;;;;;;23.23;16.42;;;;;;;2.35;96.12;102223.72;4975489;28;20047;-47
2022/12/03 00:38:17;;;;;;;23.95;16.70;;;;;;;2.34;95.82;102217.50;4983280;28;20101;-49
2022/12/03 00:40:44;;;;;;;21.90;14.77;;;;;;;2.34;96.03;102217.50;4975147;28;20054;-49
2022/12/03 00:43:12;;;;;;;20.60;15.30;;;;;;;2.32;96.76;102216.03;4974912;28;20094;-47
2022/12/03 00:45:39;;;;;;;21.38;14.88;;;;;;;2.35;96.44;102218.34;4963612;28;20058;-49
2022/12/03 00:48:07;;;;;;;25.40;17.65;;;;;;;2.34;96.29;102212.13;4982328;28;20045;-48
2022/12/03 00:50:35;;;;;;;21.35;14.88;;;;;;;2.30;97.29;102213.50;4978724;28;20050;-52
2022/12/03 00:53:02;;;;;;;21.13;15.18;;;;;;;2.26;96.44;102211.34;4974878;28;20034;-48
2022/12/03 00:55:30;;;;;;;22.13;16.55;;;;;;;2.23;96.46;102209.03;4977037;28;20082;-48
2022/12/03 00:57:58;;;;;;;22.00;15.60;;;;;;;2.26;96.74;102219.41;4976624;28;20039;-48
2022/12/03 01:00:25;;;;;;;21.35;14.75;;;;;;;2.28;96.70;102214.69;4962788;28;20502;-50
2022/12/03 01:02:53;;;;;;;23.15;17.55;;;;;;;2.24;96.63;102216.09;4975238;28;20406;-47
2022/12/03 01:05:21;;;;;;;22.48;16.15;;;;;;;2.24;97.11;102210.72;4974715;28;20093;-48
2022/12/03 01:07:49;;;;;;;23.35;16.73;;;;;;;2.26;96.78;102219.41;4963705;28;20065;-49
2022/12/03 01:10:16;;;;;;;21.83;15.30;;;;;;;2.27;96.65;102213.03;4987891;28;20043;-49
2022/12/03 01:12:44;;;;;;;20.85;13.88;;;;;;;2.25;96.80;102221.28;4981059;28;20046;-48
2022/12/03 01:15:11;;;;;;;23.88;17.85;;;;;;;2.24;96.88;102219.59;4985129;28;20054;-49
2022/12/03 01:17:40;;;;;;;22.27;16.17;;;;;;;2.22;96.42;102223.50;4990265;28;20035;-49
2022/12/03 01:20:09;;;;;;;22.92;16.42;;;;;;;2.12;96.91;102219.19;4974753;28;20046;-47
2022/12/03 01:22:36;;;;;;;23.00;16.73;;;;;;;2.11;97.05;102220.16;4969360;28;20121;-50
2022/12/03 01:25:04;;;;;;;22.98;15.88;;;;;;;2.15;97.00;102219.84;4974380;28;20074;-48
2022/12/03 01:27:32;;;;;;;27.48;19.17;;;;;;;2.23;97.18;102222.47;4970346;28;20047;-49
2022/12/03 01:29:59;;;;;;;23.52;16.13;;;;;;;2.33;96.64;102220.38;4986264;28;20093;-48
2022/12/03 01:32:27;;;;;;;23.70;16.75;;;;;;;2.34;95.49;102205.94;4974341;28;20051;-46
2022/12/03 01:34:55;;;;;;;22.33;16.05;;;;;;;2.31;95.93;102217.06;4957124;28;20042;-47
2022/12/03 01:37:24;;;;;;;22.05;15.82;;;;;;;2.31;96.93;102211.66;4974361;28;20043;-49
2022/12/03 01:39:52;;;;;;;25.90;18.15;;;;;;;2.27;96.64;102210.34;4974128;28;20043;-50
2022/12/03 01:42:32;;;;;;;23.58;17.42;;;;;;;2.27;96.81;102215.72;4963518;28;20050;-47
2022/12/03 01:45:00;;;;;;;25.70;16.25;;;;;;;2.29;96.26;102211.00;4973065;28;20441;-48
2022/12/03 01:47:33;;;;;;;21.60;15.85;;;;;;;2.21;97.08;102206.50;4983840;28;20054;-47
2022/12/03 01:50:14;;;;;;;26.95;18.67;;;;;;;2.24;96.97;102203.47;4975395;28;20039;-48
2022/12/03 01:52:42;;;;;;;25.95;18.90;;;;;;;2.31;96.68;102200.91;4960822;28;20493;-48
2022/12/03 01:55:18;;;;;;;25.38;17.98;;;;;;;2.31;96.39;102206.28;4972614;28;20047;-50
2022/12/03 01:57:51;;;;;;;21.10;15.60;;;;;;;2.25;97.15;102212.38;4984318;28;20038;-48
2022/12/03 02:00:22;;;;;;;24.48;16.15;;;;;;;2.27;96.95;102202.28;4975904;28;20050;-50
2022/12/03 02:03:00;;;;;;;25.05;17.30;;;;;;;2.29;96.27;102203.78;4974029;28;20043;-48
2022/12/03 02:05:32;;;;;;;25.27;17.27;;;;;;;2.26;96.73;102203.28;4967687;28;20058;-46
2022/12/03 02:08:00;;;;;;;23.40;16.95;;;;;;;2.25;97.03;102196.25;4969524;28;20035;-49
2022/12/03 02:10:31;;;;;;;24.33;17.42;;;;;;;2.22;97.28;102202.81;4974066;28;20053;-46
2022/12/03 02:13:04;;;;;;;22.88;17.17;;;;;;;2.23;97.78;102200.94;4985029;28;20053;-49
2022/12/03 02:15:32;;;;;;;24.73;17.50;;;;;;;2.23;97.20;102203.66;4979545;28;20046;-49
2022/12/03 02:17:59;;;;;;;26.27;17.95;;;;;;;2.20;97.14;102198.63;4996459;28;20041;-49
2022/12/03 02:20:27;;;;;;;23.60;17.27;;;;;;;2.20;97.02;102201.31;4965568;28;20157;-48
2022/12/03 02:23:07;;;;;;;24.33;17.85;;;;;;;2.20;97.19;102198.63;4995575;28;20496;-50
2022/12/03 02:25:35;;;;;;;24.58;17.17;;;;;;;2.21;97.24;102201.13;4965392;28;20042;-48
2022/12/03 02:28:04;;;;;;;26.13;18.58;;;;;;;2.25;97.33;102191.69;4992485;28;20050;-49
2022/12/03 02:30:32;;;;;;;22.35;16.48;;;;;;;2.29;96.84;102197.56;4982288;28;20061;-48
2022/12/03 02:33:00;;;;;;;26.08;18.52;;;;;;;2.32;97.05;102191.81;5000765;28;20042;-50
2022/12/03 02:35:34;;;;;;;23.27;16.92;;;;;;;2.27;96.70;102194.22;4995296;28;20038;-47
2022/12/03 02:38:20;;;;;;;23.98;17.13;;;;;;;2.18;96.97;102189.91;4988074;28;20586;-47
2022/12/03 02:40:51;;;;;;;26.27;18.65;;;;;;;2.20;97.76;102194.09;4962103;28;20042;-49
2022/12/03 02:43:19;;;;;;;27.20;17.67;;;;;;;2.30;97.60;102183.09;5011500;28;20042;-51
2022/12/03 02:45:50;;;;;;;24.58;17.55;;;;;;;2.33;96.88;102183.59;5012049;28;20065;-48
2022/12/03 02:48:38;;;;;;;27.60;18.27;;;;;;;2.37;96.49;102178.66;5013422;28;20129;-48
2022/12/03 02:51:08;;;;;;;25.70;17.50;;;;;;;2.38;96.52;102177.63;4984714;28;20085;-48
2022/12/03 02:53:41;;;;;;;23.08;16.55;;;;;;;2.34;96.33;102179.03;4976715;28;20043;-49
2022/12/03 02:56:14;;;;;;;22.08;16.25;;;;;;;2.27;96.52;102180.75;4987584;28;20073;-52
2022/12/03 02:58:43;;;;;;;25.65;19.00;;;;;;;2.21;97.25;102187.69;4973336;28;20390;-49
2022/12/03 03:01:11;;;;;;;26.73;19.65;;;;;;;2.22;97.34;102184.00;4968001;28;20039;-52
2022/12/03 03:03:39;;;;;;;21.38;15.00;;;;;;;2.23;97.66;102179.44;4959670;28;20106;-52
2022/12/03 03:06:07;;;;;;;23.33;16.92;;;;;;;2.30;97.30;102189.28;4976889;28;20042;-50
2022/12/03 03:08:37;;;;;;;24.15;17.88;;;;;;;2.33;96.76;102182.72;4968337;28;20046;-50
2022/12/03 03:11:04;;;;;;;26.45;18.13;;;;;;;2.38;97.51;102180.31;4978272;28;20101;-46
2022/12/03 03:13:33;;;;;;;26.10;18.80;;;;;;;2.28;96.86;102180.56;4968139;28;20042;-47
2022/12/03 03:16:02;;;;;;;23.45;16.73;;;;;;;2.34;97.80;102177.16;4976683;28;20043;-48
2022/12/03 03:18:31;;;;;;;23.48;17.02;;;;;;;2.32;96.87;102167.63;4977005;28;20043;-49
2022/12/03 03:20:59;;;;;;;26.50;18.45;;;;;;;2.35;97.27;102175.31;4972545;28;20047;-50
2022/12/03 03:23:26;;;;;;;28.33;19.63;;;;;;;2.29;97.00;102170.66;4964237;28;20453;-47
2022/12/03 03:26:04;;;;;;;25.63;18.25;;;;;;;2.26;97.33;102173.69;4974905;28;20054;-48
2022/12/03 03:28:34;;;;;;;25.63;18.17;;;;;;;2.23;97.37;102166.00;4982420;28;20556;-47
2022/12/03 03:31:05;;;;;;;25.90;18.27;;;;;;;2.16;97.82;102156.97;4963143;28;20042;-47
2022/12/03 03:33:32;;;;;;;25.35;18.92;;;;;;;2.25;97.84;102164.81;4963413;28;20043;-47
2022/12/03 03:36:00;;;;;;;22.42;16.58;;;;;;;2.35;97.36;102161.88;4976258;28;20497;-51
2022/12/03 03:38:29;;;;;;;25.50;17.38;;;;;;;2.36;96.94;102155.50;4976356;28;20043;-52
2022/12/03 03:40:58;;;;;;;27.50;18.90;;;;;;;2.34;96.98;102165.59;4972686;28;20121;-51
2022/12/03 03:43:25;;;;;;;26.05;18.75;;;;;;;2.35;96.91;102161.88;4959581;28;20039;-49
2022/12/03 03:45:53;;;;;;;24.95;17.75;;;;;;;2.35;97.09;102148.41;4976088;28;20063;-47
2022/12/03 03:48:22;;;;;;;21.42;16.83;;;;;;;2.33;96.59;102150.44;4976032;28;20521;-48
2022/12/03 03:50:50;;;;;;;25.25;18.33;;;;;;;2.39;97.09;102157.81;4991826;28;20416;-47
2022/12/03 03:53:19;;;;;;;26.02;18.67;;;;;;;2.40;96.77;102151.41;4995090;28;20714;-48
2022/12/03 03:55:46;;;;;;;23.70;17.15;;;;;;;2.37;97.16;102145.56;4994913;28;20034;-49
2022/12/03 03:58:16;;;;;;;23.33;16.33;;;;;;;2.39;96.68;102154.28;4998476;28;20050;-47
2022/12/03 04:00:46;;;;;;;24.98;18.08;;;;;;;2.42;96.55;102151.22;4993894;28;20453;-46
2022/12/03 04:03:14;;;;;;;26.45;19.55;;;;;;;2.39;96.59;102149.75;5007929;28;20394;-47
2022/12/03 04:05:42;;;;;;;25.77;18.55;;;;;;;2.33;96.48;102142.38;5014640;28;20037;-48
2022/12/03 04:08:09;;;;;;;27.17;19.48;;;;;;;2.31;97.06;102147.13;4997383;28;20037;-47
2022/12/03 04:13:23;;;;;;;21.65;15.73;;;;;;;2.24;97.64;102152.38;5014791;28;20038;-49
2022/12/03 04:15:50;;;;;;;25.42;17.02;;;;;;;2.28;97.26;102147.47;5014858;28;20069;-47
2022/12/03 04:23:50;;;;;;;;;;;;;;;2.38;97.14;102141.84;5014331;28;20034;-45
2022/12/03 04:29:04;;;;;;;28.00;18.88;;;;;;;2.19;97.44;102149.41;4999398;28;20049;-47
2022/12/03 04:37:04;;;;;;;27.80;19.52;;;;;;;2.31;97.80;102139.88;5014113;28;20452;-50
2022/12/03 04:39:32;;;;;;;26.23;18.55;;;;;;;2.37;97.63;102148.25;5005169;28;20053;-48
2022/12/03 04:41:59;;;;;;;27.83;21.05;;;;;;;2.42;96.89;102143.16;4996765;28;20038;-49
2022/12/03 04:44:35;;;;;;;29.65;20.48;;;;;;;2.42;97.14;102138.59;5013921;28;20504;-47
2022/12/03 04:47:07;;;;;;;28.60;20.77;;;;;;;2.36;96.63;102139.34;5013703;28;20045;-50
2022/12/03 04:49:36;;;;;;;26.67;19.70;;;;;;;2.37;97.11;102129.41;5008094;28;20309;-49
2022/12/03 04:52:04;;;;;;;29.63;21.20;;;;;;;2.38;97.43;102134.59;5013796;28;20088;-48
2022/12/03 04:54:32;;;;;;;29.30;19.95;;;;;;;2.41;97.39;102131.56;4996669;28;20041;-48
2022/12/03 04:57:00;;;;;;;29.98;21.83;;;;;;;2.31;97.78;102136.38;4996223;28;20045;-51
2022/12/03 04:59:28;;;;;;;30.15;22.20;;;;;;;2.29;98.54;102135.72;5000830;28;20129;-48
2022/12/03 05:01:57;;;;;;;31.90;23.02;;;;;;;2.33;98.63;102128.94;4997836;28;20030;-48
2022/12/03 05:04:25;;;;;;;31.48;22.77;;;;;;;2.32;98.44;102132.66;4995947;28;20073;-50
2022/12/03 05:06:53;;;;;;;26.73;19.40;;;;;;;2.37;98.54;102124.88;4999414;28;20084;-49
2022/12/03 05:09:20;;;;;;;30.00;21.40;;;;;;;2.29;98.66;102128.47;4993245;28;20046;-50
2022/12/03 05:11:48;;;;;;;29.40;20.15;;;;;;;2.29;99.24;102127.63;4998049;28;20042;-48
2022/12/03 05:14:16;;;;;;;29.92;19.35;;;;;;;2.38;99.08;102125.69;4975986;28;20034;-48
2022/12/03 05:16:43;;;;;;;31.25;21.23;;;;;;;2.39;98.06;102122.84;4993716;28;20053;-47
2022/12/03 05:19:11;;;;;;;29.92;21.13;;;;;;;2.42;98.64;102132.41;4999278;28;20045;-47
2022/12/03 05:21:39;;;;;;;28.63;20.77;;;;;;;2.41;98.79;102123.50;5012740;28;20392;-48
2022/12/03 05:24:06;;;;;;;30.13;21.20;;;;;;;2.43;98.56;102129.53;4994832;28;20042;-48
2022/12/03 05:26:34;;;;;;;31.63;22.42;;;;;;;2.42;98.77;102127.84;5012640;28;20042;-56
2022/12/03 05:29:01;;;;;;;27.83;19.77;;;;;;;2.33;98.49;102129.78;4987411;28;20492;-47
2022/12/03 05:31:29;;;;;;;27.88;19.67;;;;;;;2.26;99.05;102125.28;5013980;28;20042;-46
2022/12/03 05:33:57;;;;;;;29.23;20.45;;;;;;;2.22;99.21;102124.00;5013488;28;20397;-48
2022/12/03 05:36:24;;;;;;;32.00;22.52;;;;;;;2.10;99.96;102120.91;5013038;28;20049;-45
2022/12/03 05:38:52;;;;;;;31.88;22.55;;;;;;;2.06;100.00;102122.25;5004071;28;20038;-48
2022/12/03 05:44:06;;;;;;;26.77;18.65;;;;;;;2.25;100.00;102115.56;5014053;28;20049;-51
2022/12/03 05:46:33;;;;;;;30.55;22.20;;;;;;;2.27;100.00;102108.16;5012604;28;20054;-48
2022/12/03 05:49:01;;;;;;;35.05;22.45;;;;;;;2.26;99.79;102109.16;4981238;28;20041;-50
2022/12/03 05:51:29;;;;;;;31.05;20.75;;;;;;;2.24;100.00;102106.66;5012088;28;20064;-50
2022/12/03 05:53:57;;;;;;;31.65;22.13;;;;;;;2.30;100.00;102105.09;5005147;28;20035;-48
2022/12/03 05:56:24;;;;;;;26.85;18.70;;;;;;;2.35;100.00;102100.00;4992598;28;20061;-50
2022/12/03 05:58:52;;;;;;;31.13;21.27;;;;;;;2.26;100.00;102111.84;4998515;28;20038;-48
2022/12/03 06:01:21;;;;;;;32.58;22.88;;;;;;;2.19;100.00;102106.38;5005328;28;20057;-47
2022/12/03 06:03:48;;;;;;;32.40;21.88;;;;;;;2.16;100.00;102108.56;4958623;28;20046;-49
2022/12/03 06:06:16;;;;;;;32.42;22.00;;;;;;;2.20;100.00;102112.59;4943698;28;20121;-46
2022/12/03 06:08:43;;;;;;;34.85;22.58;;;;;;;2.24;100.00;102112.03;5000802;28;20050;-50
2022/12/03 06:11:11;;;;;;;30.77;21.27;;;;;;;2.26;100.00;102110.00;5008249;28;20035;-49
2022/12/03 06:13:39;;;;;;;31.80;21.25;;;;;;;2.26;100.00;102109.16;4995222;28;20497;-50
2022/12/03 06:16:06;;;;;;;28.00;17.85;;;;;;;2.25;100.00;102110.19;4993862;28;20068;-49
2022/12/03 06:18:34;;;;;;;29.83;20.25;;;;;;;2.25;100.00;102112.88;4996529;28;20101;-47
2022/12/03 06:21:03;;;;;;;30.45;21.10;;;;;;;2.25;100.00;102110.19;5000761;28;20370;-48
2022/12/03 06:23:31;;;;;;;33.15;21.40;;;;;;;2.15;100.00;102109.59;4992590;28;20042;-50
2022/12/03 06:25:58;;;;;;;31.90;21.40;;;;;;;2.19;100.00;102100.13;5003030;28;20042;-48
2022/12/03 06:28:26;;;;;;;32.03;21.13;;;;;;;2.24;100.00;102103.16;5014313;28;20489;-48
2022/12/03 06:30:53;;;;;;;30.88;19.83;;;;;;;2.25;100.00;102107.50;5016043;28;20501;-48
2022/12/03 06:33:21;;;;;;;29.13;19.70;;;;;;;2.27;100.00;102105.47;5016413;28;20068;-48
2022/12/03 06:35:49;;;;;;;30.08;21.05;;;;;;;2.22;100.00;102102.50;5001980;28;20050;-48
2022/12/03 06:38:16;;;;;;;31.33;21.45;;;;;;;2.18;100.00;102103.84;5005765;28;20044;-48
2022/12/03 06:40:44;;;;;;;29.13;20.45;;;;;;;2.15;100.00;102104.22;5012168;28;20403;-47
2022/12/03 06:43:12;;;;;;;32.08;20.50;;;;;;;2.11;100.00;102104.56;5015934;28;20058;-47
2022/12/03 06:45:39;;;;;;;26.00;17.23;;;;;;;2.13;100.00;102101.72;4998030;28;20042;-48
2022/12/03 06:48:16;;;;;;;26.25;17.48;;;;;;;2.21;100.00;102103.50;4960560;28;20476;-50
2022/12/03 06:50:43;;;;;;;28.33;19.58;;;;;;;2.24;100.00;102087.00;4990390;28;20397;-49
2022/12/03 06:53:11;;;;;;;30.83;20.58;;;;;;;2.11;99.72;102088.44;4983579;28;20497;-47
2022/12/03 06:55:39;;;;;;;29.02;20.25;;;;;;;2.12;100.00;102100.88;4984005;28;20047;-48
2022/12/03 06:58:06;;;;;;;28.92;19.67;;;;;;;2.15;99.87;102088.94;4995485;28;20046;-50
2022/12/03 07:00:34;;;;;;;28.08;19.02;;;;;;;2.08;100.00;102088.81;5015843;28;20061;-47
2022/12/03 07:03:02;;;;;;;30.90;21.70;;;;;;;2.13;99.72;102090.97;5015555;28;20120;-50
2022/12/03 07:05:29;;;;;;;29.02;19.15;;;;;;;2.16;100.00;102089.75;5015781;28;20129;-49
2022/12/03 07:07:57;;;;;;;27.67;18.38;;;;;;;2.12;99.70;102090.13;4983154;28;20046;-47
2022/12/03 07:10:25;;;;;;;29.85;20.25;;;;;;;2.20;99.88;102096.44;4991779;28;20066;-48
2022/12/03 07:12:52;;;;;;;28.58;18.85;;;;;;;2.11;99.42;102096.50;5006508;28;20049;-48
2022/12/03 07:15:20;;;;;;;28.85;19.40;;;;;;;2.08;99.88;102093.34;5015434;28;20133;-48
2022/12/03 07:17:48;;;;;;;26.77;18.27;;;;;;;2.10;99.50;102097.53;5013156;28;20042;-48
2022/12/03 07:20:15;;;;;;;27.60;18.77;;;;;;;2.15;99.53;102098.84;4989229;28;20050;-48
2022/12/03 07:22:43;;;;;;;28.25;18.60;;;;;;;2.15;99.53;102099.69;4982069;28;20045;-50
2022/12/03 07:25:11;;;;;;;29.58;19.10;;;;;;;2.17;99.37;102096.81;4993262;28;20069;-49
2022/12/03 07:27:43;;;;;;;28.92;18.50;;;;;;;2.18;99.49;102098.47;5001420;28;20118;-49
2022/12/03 07:30:13;;;;;;;27.73;19.73;;;;;;;2.15;99.12;102093.47;4997517;28;20046;-50
2022/12/03 07:32:41;;;;;;;29.42;19.27;;;;;;;2.09;99.63;102095.88;5005026;28;20053;-48
2022/12/03 07:35:09;;;;;;;29.95;19.60;;;;;;;2.09;99.04;102095.00;5008520;28;20046;-48
2022/12/03 07:37:37;;;;;;;27.58;18.83;;;;;;;2.10;99.61;102096.69;5015305;28;20041;-48
2022/12/03 07:40:05;;;;;;;29.42;19.13;;;;;;;2.01;99.19;102103.97;4997729;28;20046;-50
2022/12/03 07:42:33;;;;;;;30.52;20.15;;;;;;;2.03;99.32;102099.28;5014952;28;20045;-46
2022/12/03 07:45:00;;;;;;;31.73;19.90;;;;;;;2.09;99.47;102103.06;5008950;28;20038;-49
2022/12/03 07:47:28;;;;;;;29.90;19.50;;;;;;;2.10;98.51;102097.53;4997812;28;20065;-47
2022/12/03 07:49:56;;;;;;;29.77;19.77;;;;;;;2.11;98.31;102099.19;4987411;28;20489;-47
2022/12/03 07:52:23;;;;;;;30.08;19.23;;;;;;;2.06;98.95;102095.38;4980642;28;20497;-48
2022/12/03 07:54:51;;;;;;;27.35;17.75;;;;;;;2.01;99.16;102098.59;4984432;28;20041;-49
2022/12/03 07:57:19;;;;;;;28.50;19.40;;;;;;;2.02;99.74;102100.28;5004912;28;20409;-45
2022/12/03 07:59:48;;;;;;;29.58;18.73;;;;;;;1.96;99.50;102100.16;5014566;28;20049;-48
2022/12/03 08:02:16;;;;;;;31.38;19.80;;;;;;;1.93;100.00;102098.69;5014771;28;20048;-49
2022/12/03 08:04:48;;;;;;;30.42;20.17;;;;;;;1.97;100.00;102102.66;5008635;28;20053;-47
2022/12/03 08:07:16;;;;;;;30.15;19.17;;;;;;;1.97;100.00;102107.22;5015328;28;20046;-57
2022/12/03 08:09:43;;;;;;;34.25;23.02;;;;;;;1.99;100.00;102107.88;5014589;28;20049;-52
2022/12/03 08:12:17;;;;;;;31.20;20.60;;;;;;;2.13;100.00;102113.28;4997157;28;20050;-49
2022/12/03 08:14:44;;;;;;;33.15;22.00;;;;;;;2.17;100.00;102112.97;4965734;28;20034;-48
2022/12/03 08:17:12;;;;;;;36.50;22.15;;;;;;;2.18;100.00;102098.47;5011019;28;20046;-48
2022/12/03 08:19:46;;;;;;;36.45;22.98;;;;;;;2.19;100.00;102106.38;5014480;28;20116;-48
2022/12/03 08:22:15;;;;;;;37.83;23.15;;;;;;;2.16;100.00;102108.56;4997250;28;20444;-52
2022/12/03 08:24:43;;;;;;;33.22;21.83;;;;;;;2.11;100.00;102107.25;5009333;28;20038;-45
2022/12/03 08:27:18;;;;;;;37.33;22.58;;;;;;;2.17;100.00;102108.41;4991111;28;20041;-47
2022/12/03 08:29:46;;;;;;;37.67;23.30;;;;;;;2.18;100.00;102103.84;4976479;28;20447;-48
2022/12/03 08:32:14;;;;;;;37.92;23.27;;;;;;;2.11;100.00;102109.94;5014143;28;20045;-48
2022/12/03 08:34:43;;;;;;;35.85;20.92;;;;;;;2.01;100.00;102108.53;5014105;28;20038;-48
2022/12/03 08:37:18;;;;;;;35.83;22.65;;;;;;;1.87;100.00;102112.81;5010668;28;20046;-46
2022/12/03 08:39:48;;;;;;;37.42;24.67;;;;;;;1.92;100.00;102118.50;4980259;28;20045;-46
2022/12/03 08:42:41;;;;;;;36.40;22.30;;;;;;;1.94;100.00;102116.47;5014093;28;20451;-45
2022/12/03 08:45:20;;;;;;;35.40;23.40;;;;;;;1.97;100.00;102112.59;5010100;28;20089;-47
2022/12/03 08:47:48;;;;;;;39.63;23.80;;;;;;;2.00;100.00;102113.06;5008588;28;20057;-49
2022/12/03 08:50:27;;;;;;;40.03;24.77;;;;;;;2.03;100.00;102110.03;5013976;28;20042;-47
2022/12/03 08:53:19;;;;;;;39.08;23.27;;;;;;;1.97;100.00;102108.03;4996493;28;20041;-48
2022/12/03 08:55:54;;;;;;;37.20;23.23;;;;;;;1.99;99.90;102108.69;4935348;28;20046;-49
2022/12/03 08:58:24;;;;;;;39.35;24.02;;;;;;;2.06;99.64;102106.13;4993982;28;20038;-46
2022/12/03 09:00:57;;;;;;;40.95;23.67;;;;;;;2.04;98.62;102102.78;4996623;28;20097;-49
2022/12/03 09:03:30;;;;;;;35.67;22.52;;;;;;;2.03;99.01;102109.19;4979810;28;20527;-48
2022/12/03 09:05:57;;;;;;;39.08;23.65;;;;;;;1.99;99.22;102106.00;4984161;28;20050;-48
2022/12/03 09:08:25;;;;;;;42.80;25.95;;;;;;;2.06;98.38;102106.97;4983582;28;20050;-49
2022/12/03 09:10:52;;;;;;;39.55;24.45;;;;;;;2.04;97.76;102098.25;4997130;28;20045;-48
2022/12/03 09:13:20;;;;;;;40.13;26.15;;;;;;;2.02;96.96;102099.44;5007737;28;20046;-50
2022/12/03 09:15:48;;;;;;;43.15;24.58;;;;;;;1.98;97.45;102101.66;5001310;28;20034;-49
2022/12/03 09:18:15;;;;;;;41.97;25.42;;;;;;;1.96;97.41;102108.22;4984796;28;20054;-50
2022/12/03 09:20:43;;;;;;;44.92;26.23;;;;;;;1.97;98.09;102113.41;4998584;28;20484;-46
2022/12/03 09:23:11;;;;;;;40.92;25.15;;;;;;;1.95;97.98;102104.72;5013766;28;20050;-48
2022/12/03 09:25:38;;;;;;;41.63;25.75;;;;;;;2.01;97.94;102103.16;4993384;28;20046;-48
2022/12/03 09:28:06;;;;;;;41.40;24.80;;;;;;;2.08;97.20;102099.56;4993784;28;20038;-47
2022/12/03 09:30:34;;;;;;;39.97;23.80;;;;;;;2.04;96.89;102097.41;4988846;28;20374;-46
2022/12/03 09:33:01;;;;;;;41.80;25.73;;;;;;;2.04;97.59;102106.31;4995987;28;20506;-47
2022/12/03 09:35:29;;;;;;;37.83;24.63;;;;;;;2.09;97.49;102108.47;4997153;28;20039;-49
2022/12/03 09:37:57;;;;;;;44.95;25.55;;;;;;;2.00;97.43;102113.06;4995814;28;20042;-47
2022/12/03 09:40:24;;;;;;;40.85;25.70;;;;;;;1.88;98.44;102103.75;4991809;28;20047;-47
2022/12/03 09:42:52;;;;;;;42.60;24.70;;;;;;;1.92;99.00;102105.06;4992900;28;20571;-48
2022/12/03 09:45:20;;;;;;;45.00;26.95;;;;;;;1.92;98.82;102105.91;4993343;28;20046;-45
2022/12/03 09:47:49;;;;;;;46.13;26.42;;;;;;;1.76;99.21;102099.81;4972639;28;20085;-49
2022/12/03 09:50:20;;;;;;;46.15;26.40;;;;;;;1.70;99.91;102096.81;4992694;28;20042;-47
2022/12/03 09:52:49;;;;;;;46.78;26.50;;;;;;;1.74;100.00;102097.28;4992359;28;20093;-46
2022/12/03 09:55:22;;;;;;;42.03;24.13;;;;;;;1.72;100.00;102091.25;4975980;28;20046;-46
2022/12/03 09:57:51;;;;;;;58.80;35.55;;;;;;;1.84;100.00;102097.06;4979676;28;20046;-49
2022/12/03 10:00:22;;;;;;;45.63;26.80;;;;;;;1.83;100.00;102090.84;4993984;28;20046;-46
2022/12/03 10:02:53;;;;;;;46.20;25.83;;;;;;;1.85;100.00;102083.47;4994497;28;20129;-47
2022/12/03 10:05:21;;;;;;;48.00;27.25;;;;;;;1.76;100.00;102086.38;5013497;28;20527;-50
2022/12/03 10:07:50;;;;;;;44.63;26.40;;;;;;;1.74;100.00;102085.72;5012756;28;20049;-48
2022/12/03 10:10:20;;;;;;;47.83;27.02;;;;;;;1.78;100.00;102085.19;4990724;28;20124;-48
2022/12/03 10:12:52;;;;;;;42.65;25.50;;;;;;;1.80;100.00;102074.25;4980368;28;20122;-48
2022/12/03 10:15:22;;;;;;;48.00;25.98;;;;;;;1.79;100.00;102077.97;5005884;28;20042;-48
2022/12/03 10:17:53;;;;;;;46.05;27.08;;;;;;;1.77;100.00;102080.81;4995450;28;20072;-47
2022/12/03 10:20:22;;;;;;;46.85;27.58;;;;;;;1.77;100.00;102066.53;4991199;28;20117;-50
2022/12/03 10:22:51;;;;;;;44.50;25.17;;;;;;;1.82;100.00;102072.22;4970643;28;20448;-49
2022/12/03 10:25:21;;;;;;;40.47;23.60;;;;;;;1.95;100.00;102067.09;5001083;28;20408;-50
2022/12/03 10:28:00;;;;;;;37.08;22.60;;;;;;;1.91;98.98;102065.78;4989979;28;20037;-47
2022/12/03 10:30:28;;;;;;;37.10;23.45;;;;;;;1.94;98.31;102064.56;4978459;28;20039;-49
2022/12/03 10:32:57;;;;;;;38.42;22.42;;;;;;;1.92;98.13;102067.44;4989873;28;20038;-45
2022/12/03 10:35:36;;;;;;;34.42;21.80;;;;;;;1.87;97.19;102059.91;4974027;28;20053;-46
2022/12/03 10:38:06;;;;;;;33.35;20.38;;;;;;;1.92;97.21;102052.16;4957188;28;20049;-49
2022/12/03 10:40:38;;;;;;;39.00;21.52;;;;;;;1.93;96.86;102055.69;4969579;28;20065;-47
2022/12/03 10:43:16;;;;;;;37.50;21.88;;;;;;;1.94;96.86;102051.13;4992975;28;20049;-47
2022/12/03 10:46:08;;;;;;;33.70;20.90;;;;;;;1.99;96.29;102041.50;4962929;28;20066;-49
2022/12/03 10:48:37;;;;;;;33.25;21.40;;;;;;;1.97;95.93;102043.53;4981298;28;20089;-46
2022/12/03 10:51:10;;;;;;;36.45;21.35;;;;;;;1.92;95.61;102040.56;4975477;28;20038;-47
2022/12/03 10:53:39;;;;;;;35.60;21.73;;;;;;;1.98;95.77;102031.78;4975911;28;20497;-49
2022/12/03 10:56:10;;;;;;;32.95;20.63;;;;;;;2.02;94.63;102025.03;4991146;28;20031;-49
2022/12/03 10:58:39;;;;;;;31.00;20.05;;;;;;;2.01;93.94;102020.66;4979994;28;20066;-46
2022/12/03 11:01:27;;;;;;;29.83;19.98;;;;;;;1.98;92.94;102014.81;4986828;28;20049;-47
2022/12/03 11:04:00;;;;;;;31.38;18.85;;;;;;;1.94;93.21;102014.34;4994969;28;20053;-49
2022/12/03 11:06:33;;;;;;;29.90;18.65;;;;;;;1.85;92.16;102010.03;4980796;28;20050;-49
2022/12/03 11:09:03;;;;;;;33.28;21.52;;;;;;;1.84;92.95;102006.53;4998630;28;20408;-50
2022/12/03 11:11:35;;;;;;;29.73;20.02;;;;;;;1.79;92.51;102011.59;5008733;28;20072;-50
2022/12/03 11:14:04;;;;;;;29.75;18.67;;;;;;;1.79;92.75;102008.09;4995291;28;20039;-47
2022/12/03 11:16:40;;;;;;;29.27;19.63;;;;;;;1.86;92.82;102003.66;4980027;28;20065;-49
2022/12/03 11:19:16;;;;;;;29.73;18.17;;;;;;;1.91;92.19;102010.16;4996083;28;20045;-46
2022/12/03 11:22:06;;;;;;;30.83;18.85;;;;;;;1.94;92.24;102002.75;5002897;28;20037;-49
2022/12/03 11:24:35;;;;;;;25.27;17.95;;;;;;;1.90;91.81;102005.81;4989068;28;20054;-46
2022/12/03 11:27:03;;;;;;;27.90;18.95;;;;;;;1.95;91.77;102001.72;5006256;28;20049;-48
2022/12/03 11:29:53;;;;;;;30.00;19.73;;;;;;;1.88;91.59;101989.03;5005271;28;20046;-52
2022/12/03 11:32:43;;;;;;;26.20;18.20;;;;;;;1.90;92.17;101992.38;4996945;28;20054;-48
2022/12/03 11:35:22;;;;;;;27.88;19.20;;;;;;;1.93;92.22;101985.81;5004969;28;20065;-48
2022/12/03 11:37:50;;;;;;;27.10;18.08;;;;;;;1.96;92.09;101985.44;4945607;28;20520;-48
2022/12/03 11:40:18;;;;;;;27.13;18.25;;;;;;;1.98;91.94;101985.25;4986717;28;20044;-49
2022/12/03 11:42:47;;;;;;;27.35;18.63;;;;;;;1.99;92.03;101978.84;4993518;28;20066;-49
2022/12/03 11:45:33;;;;;;;28.42;19.67;;;;;;;2.02;92.28;101979.34;4970305;28;20042;-47
2022/12/03 11:48:02;;;;;;;;;;;;;;;2.02;92.29;101976.66;4955779;28;20047;-46